Big Bear Station Historical Data
Daily Summary for September 3, 2017 Units:  English    Metric   Both
« Previous Day
Next Day »
Daily Weekly Monthly Yearly Custom
  High: Low: Average:
Temperature: 79.3 °F 54.3 °F 64.9 °F
Dew Point: 56.3 °F 45.6 °F 52.5 °F
Humidity: 93 % 42 % 67 %
Wind Speed: 8.3 mph 0.0 mph 1.5 mph
Wind Gust: -999.0 mph - -
Wind:- - SW
Pressure: 30.36 in 30.28 in -
Precipitation: 0.00 in    
Historical Graphs
 
 
Tabular Data for September 3, 2017
Time Temperature Dew Point Pressure Wind Wind Speed Wind Gust Humidity Rainfall Rate (Hourly)
00:01 58.1 °F 51.3 °F 30.35 in Calm   -999.0 mph 78 % 0 in
00:16 57.4 °F 51.6 °F 30.35 in Calm   -999.0 mph 81 % 0 in
00:32 56.8 °F 51.7 °F 30.34 in Calm   -999.0 mph 83 % 0 in
00:47 56.8 °F 51.7 °F 30.34 in South 1.1 mph -999.0 mph 83 % 0 in
01:02 56.5 °F 51.1 °F 30.34 in Calm   -999.0 mph 82 % 0 in
01:17 56.1 °F 51.7 °F 30.34 in Calm   -999.0 mph 85 % 0 in
01:32 56.3 °F 51.8 °F 30.34 in Calm   -999.0 mph 85 % 0 in
01:48 56.5 °F 52.0 °F 30.34 in Calm   -999.0 mph 85 % 0 in
02:03 55.9 °F 51.5 °F 30.34 in Calm   -999.0 mph 85 % 0 in
02:18 55.9 °F 51.5 °F 30.33 in Calm   -999.0 mph 85 % 0 in
02:33 56.1 °F 51.7 °F 30.33 in South 2.2 mph -999.0 mph 85 % 0 in
02:48 55.8 °F 51.4 °F 30.33 in Calm   -999.0 mph 85 % 0 in
03:04 55.4 °F 51.3 °F 30.33 in Calm   -999.0 mph 86 % 0 in
03:19 55.4 °F 51.6 °F 30.33 in Calm   -999.0 mph 87 % 0 in
03:34 55.2 °F 51.7 °F 30.33 in Calm   -999.0 mph 88 % 0 in
03:49 55.0 °F 51.8 °F 30.33 in Calm   -999.0 mph 89 % 0 in
04:05 54.9 °F 51.7 °F 30.32 in Calm   -999.0 mph 89 % 0 in
04:20 54.9 °F 52.0 °F 30.32 in Calm   -999.0 mph 90 % 0 in
04:35 54.9 °F 52.0 °F 30.33 in Calm   -999.0 mph 90 % 0 in
04:50 54.9 °F 52.3 °F 30.33 in Calm   -999.0 mph 91 % 0 in
05:05 54.9 °F 52.3 °F 30.33 in Calm   -999.0 mph 91 % 0 in
05:21 54.9 °F 52.6 °F 30.33 in Calm   -999.0 mph 92 % 0 in
05:36 54.9 °F 52.6 °F 30.33 in Calm   -999.0 mph 92 % 0 in
05:51 54.7 °F 52.4 °F 30.33 in Calm   -999.0 mph 92 % 0 in
06:06 54.3 °F 52.0 °F 30.33 in Calm   -999.0 mph 92 % 0 in
06:21 54.5 °F 52.5 °F 30.33 in Calm   -999.0 mph 93 % 0 in
06:37 54.5 °F 52.5 °F 30.34 in Calm   -999.0 mph 93 % 0 in
06:52 54.9 °F 52.9 °F 30.34 in Calm   -999.0 mph 93 % 0 in
07:07 55.4 °F 53.4 °F 30.34 in Calm   -999.0 mph 93 % 0 in
07:22 55.6 °F 53.6 °F 30.35 in Calm   -999.0 mph 93 % 0 in
07:37 57.0 °F 54.7 °F 30.35 in Calm   -999.0 mph 92 % 0 in
07:53 57.4 °F 55.1 °F 30.35 in Calm   -999.0 mph 92 % 0 in
08:08 58.1 °F 55.8 °F 30.35 in Calm   -999.0 mph 92 % 0 in
08:23 59.9 °F 56.0 °F 30.35 in Calm   -999.0 mph 87 % 0 in
08:38 61.7 °F 56.1 °F 30.35 in West 1.7 mph -999.0 mph 82 % 0 in
08:53 64.4 °F 56.3 °F 30.35 in North 3.2 mph -999.0 mph 75 % 0 in
09:09 67.6 °F 54.1 °F 30.35 in NW 3.2 mph -999.0 mph 62 % 0 in
09:24 68.9 °F 54.4 °F 30.35 in East 2.2 mph -999.0 mph 60 % 0 in
09:39 69.8 °F 54.4 °F 30.35 in NNW 4.7 mph -999.0 mph 58 % 0 in
09:54 71.1 °F 54.6 °F 30.35 in West 2.2 mph -999.0 mph 56 % 0 in
10:09 72.0 °F 53.9 °F 30.35 in ENE 6.3 mph -999.0 mph 53 % 0 in
10:25 73.4 °F 54.7 °F 30.35 in NNW 4.2 mph -999.0 mph 52 % 0 in
10:40 73.9 °F 54.1 °F 30.35 in NW 2.7 mph -999.0 mph 50 % 0 in
10:55 76.3 °F 54.6 °F 30.36 in West 2.7 mph -999.0 mph 47 % 0 in
11:26 77.7 °F 55.3 °F 30.36 in NW 8.3 mph -999.0 mph 46 % 0 in
11:41 78.4 °F 55.9 °F 30.35 in NW 6.3 mph -999.0 mph 46 % 0 in
11:56 75.6 °F 55.1 °F 30.35 in East 1.1 mph -999.0 mph 49 % 0 in
12:11 75.7 °F 54.6 °F 30.35 in North 2.7 mph -999.0 mph 48 % 0 in
12:26 75.9 °F 54.2 °F 30.34 in NNW 1.1 mph -999.0 mph 47 % 0 in
12:42 79.3 °F 54.9 °F 30.34 in NW 3.2 mph -999.0 mph 43 % 0 in
12:57 79.0 °F 55.2 °F 30.34 in SW 3.2 mph -999.0 mph 44 % 0 in
13:12 77.0 °F 54.0 °F 30.34 in NE 2.7 mph -999.0 mph 45 % 0 in
13:28 77.7 °F 54.1 °F 30.33 in East 3.7 mph -999.0 mph 44 % 0 in
13:43 76.3 °F 54.0 °F 30.33 in South 2.2 mph -999.0 mph 46 % 0 in
13:59 78.6 °F 55.5 °F 30.33 in ESE 2.2 mph -999.0 mph 45 % 0 in
14:14 79.3 °F 54.2 °F 30.33 in SE 2.2 mph -999.0 mph 42 % 0 in
14:29 76.6 °F 53.7 °F 30.32 in ESE 1.1 mph -999.0 mph 45 % 0 in
14:44 78.3 °F 54.0 °F 30.32 in West 4.7 mph -999.0 mph 43 % 0 in
14:59 77.4 °F 54.4 °F 30.32 in NNW 3.7 mph -999.0 mph 45 % 0 in
15:15 77.4 °F 53.2 °F 30.31 in Calm   -999.0 mph 43 % 0 in
15:30 76.6 °F 53.7 °F 30.31 in SE 4.2 mph -999.0 mph 45 % 0 in
15:45 76.6 °F 54.3 °F 30.31 in Calm   -999.0 mph 46 % 0 in
16:01 75.0 °F 54.0 °F 30.31 in SSW 3.2 mph -999.0 mph 48 % 0 in
16:16 70.9 °F 52.9 °F 30.31 in SW 5.8 mph -999.0 mph 53 % 0 in
16:31 69.6 °F 55.6 °F 30.31 in WSW 7.3 mph -999.0 mph 61 % 0 in
16:46 67.6 °F 54.6 °F 30.31 in South 1.7 mph -999.0 mph 63 % 0 in
17:01 67.3 °F 54.7 °F 30.30 in NW 1.1 mph -999.0 mph 64 % 0 in
17:17 68.0 °F 54.1 °F 30.30 in WNW 2.7 mph -999.0 mph 61 % 0 in
17:32 68.5 °F 54.5 °F 30.30 in WNW 2.2 mph -999.0 mph 61 % 0 in
17:47 68.0 °F 54.1 °F 30.30 in NNE 3.2 mph -999.0 mph 61 % 0 in
18:02 66.7 °F 53.3 °F 30.30 in South 2.2 mph -999.0 mph 62 % 0 in
18:17 66.4 °F 53.4 °F 30.30 in Calm   -999.0 mph 63 % 0 in
18:33 66.4 °F 53.4 °F 30.30 in SSW 1.1 mph -999.0 mph 63 % 0 in
18:48 66.0 °F 53.0 °F 30.30 in SE 1.1 mph -999.0 mph 63 % 0 in
19:03 65.5 °F 53.0 °F 30.30 in Calm   -999.0 mph 64 % 0 in
19:18 64.8 °F 51.5 °F 30.30 in NNW 1.1 mph -999.0 mph 62 % 0 in
19:33 64.0 °F 50.7 °F 30.29 in Calm   -999.0 mph 62 % 0 in
19:49 63.3 °F 50.1 °F 30.30 in NW 2.2 mph -999.0 mph 62 % 0 in
20:04 62.8 °F 49.6 °F 30.30 in Calm   -999.0 mph 62 % 0 in
20:19 62.2 °F 49.5 °F 30.30 in Calm   -999.0 mph 63 % 0 in
20:34 62.2 °F 48.6 °F 30.31 in Calm   -999.0 mph 61 % 0 in
20:50 62.4 °F 48.8 °F 30.31 in Calm   -999.0 mph 61 % 0 in
21:05 62.2 °F 48.6 °F 30.30 in Calm   -999.0 mph 61 % 0 in
21:20 62.1 °F 48.9 °F 30.31 in NW 4.2 mph -999.0 mph 62 % 0 in
21:35 63.9 °F 46.9 °F 30.30 in SW 1.1 mph -999.0 mph 54 % 0 in
21:50 64.9 °F 46.9 °F 30.30 in SSE 2.7 mph -999.0 mph 52 % 0 in
22:06 65.5 °F 45.8 °F 30.30 in NW 2.2 mph -999.0 mph 49 % 0 in
22:21 65.8 °F 45.6 °F 30.29 in SSE 2.2 mph -999.0 mph 48 % 0 in
22:36 66.0 °F 46.3 °F 30.29 in WSW 1.7 mph -999.0 mph 49 % 0 in
22:51 65.7 °F 48.1 °F 30.29 in West 1.1 mph -999.0 mph 53 % 0 in
23:06 65.7 °F 49.6 °F 30.29 in Calm   -999.0 mph 56 % 0 in
23:22 65.3 °F 49.7 °F 30.29 in NNE 3.7 mph -999.0 mph 57 % 0 in
23:37 64.9 °F 49.8 °F 30.28 in WNW 2.2 mph -999.0 mph 58 % 0 in
23:52 64.6 °F 50.0 °F 30.28 in Calm   -999.0 mph 59 % 0 in
Big Bear CA Weather
Compliments of Weather Underground - 1.5 mb